Time;durP1;ratioP1;P1;durP2;ratioP2;P2;SDS_P1;SDS_P2;PMS_P1;PMS_P2;Temp;Humidity;BMP_temperature;BMP_pressure;BME280_temperature;BME280_humidity;BME280_pressure;Samples;Min_cycle;Max_cycle;Signal;HPM_P1;HPM_P2
2022/10/03 00:02:15;;;;;;;;;;;9.10;99.90;;;;;;4950394;29;19910;-83
2022/10/03 00:04:41;;;;;;;;;;;9.10;99.90;;;;;;4952013;29;19966;-83
2022/10/03 00:07:25;;;;;;;;;;;9.00;99.90;;;;;;4950022;28;19914;-82
2022/10/03 00:09:57;;;;;;;;;;;9.00;99.90;;;;;;4940589;29;19922;-83
2022/10/03 00:12:39;;;;;;;;;;;9.00;99.90;;;;;;4950607;28;19921;-83
2022/10/03 00:15:05;;;;;;;;;;;8.90;99.90;;;;;;4950231;29;20373;-83
2022/10/03 00:17:48;;;;;;;;;;;8.90;99.90;;;;;;4951103;28;20005;-83
2022/10/03 00:20:35;;;;;;;;;;;8.80;99.90;;;;;;4950127;29;19981;-82
2022/10/03 00:23:15;;;;;;;;;;;8.80;99.90;;;;;;4931293;29;19915;-83
2022/10/03 00:26:00;;;;;;;;;;;8.80;99.90;;;;;;4935441;28;19969;-83
2022/10/03 00:28:35;;;;;;;;;;;8.70;99.90;;;;;;4947230;29;20356;-82
2022/10/03 00:31:01;;;;;;;;;;;8.70;99.90;;;;;;4957611;28;19953;-83
2022/10/03 00:33:43;;;;;;;;;;;8.60;99.90;;;;;;4934131;29;19978;-83
2022/10/03 00:36:41;;;;;;;;;;;8.60;99.90;;;;;;4950522;29;19911;-83
2022/10/03 00:39:19;;;;;;;;;;;8.60;99.90;;;;;;4912689;29;19915;-84
2022/10/03 00:41:52;;;;;;;;;;;8.50;99.90;;;;;;4947884;29;19993;-84
2022/10/03 00:44:37;;;;;;;;;;;8.50;99.90;;;;;;4942413;29;19910;-83
2022/10/03 00:47:02;;;;;;;;;;;8.40;99.90;;;;;;4949702;28;19917;-83
2022/10/03 00:49:34;;;;;;;;;;;8.40;99.90;;;;;;4935658;28;19940;-83
2022/10/03 00:52:11;;;;;;;;;;;8.40;99.90;;;;;;4964619;28;19907;-83
2022/10/03 00:54:43;;;;;;;;;;;8.40;99.90;;;;;;4949836;29;19911;-83
2022/10/03 00:57:28;;;;;;;;;;;8.40;99.90;;;;;;4949451;29;20008;-83
2022/10/03 01:00:15;;;;;;;;;;;8.40;99.90;;;;;;4934668;29;19914;-82
2022/10/03 01:02:59;;;;;;;;;;;8.40;99.90;;;;;;4940665;29;19961;-84
2022/10/03 01:05:40;;;;;;;;;;;8.40;99.90;;;;;;4942637;28;19921;-82
2022/10/03 01:08:17;;;;;;;;;;;8.30;99.90;;;;;;4947366;29;20000;-83
2022/10/03 01:10:46;;;;;;;;;;;8.30;99.90;;;;;;4949817;29;20004;-83
2022/10/03 01:13:16;;;;;;;;;;;8.30;99.90;;;;;;4948731;29;19911;-83
2022/10/03 01:15:48;;;;;;;;;;;8.30;99.90;;;;;;4949599;29;20398;-85
2022/10/03 01:18:28;;;;;;;;;;;8.30;99.90;;;;;;4949502;29;19970;-83
2022/10/03 01:20:57;;;;;;;;;;;8.30;99.90;;;;;;4953315;28;19910;-84
2022/10/03 01:23:29;;;;;;;;;;;8.30;99.90;;;;;;4937046;29;20102;-84
2022/10/03 01:26:01;;;;;;;;;;;8.30;99.90;;;;;;4953201;29;19911;-85
2022/10/03 01:31:41;;;;;;;;;;;8.20;99.90;;;;;;4954060;28;19910;-82
2022/10/03 01:34:23;;;;;;;;;;;8.20;99.90;;;;;;4944244;29;20005;-84
2022/10/03 01:37:01;;;;;;;;;;;8.20;99.90;;;;;;4963596;28;19910;-83
2022/10/03 01:39:42;;;;;;;;;;;8.20;99.90;;;;;;4953185;29;19961;-82
2022/10/03 01:42:10;;;;;;;;;;;8.10;99.90;;;;;;4952112;29;19910;-82
2022/10/03 01:44:42;;;;;;;;;;;8.10;99.90;;;;;;4935492;29;19911;-84
2022/10/03 01:47:20;;;;;;;;;;;8.10;99.90;;;;;;4950626;29;19978;-82
2022/10/03 01:49:52;;;;;;;;;;;8.10;99.90;;;;;;4938770;29;19973;-83
2022/10/03 01:52:33;;;;;;;;;;;8.00;99.90;;;;;;4952542;29;19918;-84
2022/10/03 01:55:04;;;;;;;;;;;8.00;99.90;;;;;;4949405;29;19917;-85
2022/10/03 01:57:36;;;;;;;;;;;8.00;99.90;;;;;;4968176;28;19922;-83
2022/10/03 02:00:11;;;;;;;;;;;8.00;99.90;;;;;;4949226;29;19914;-84
2022/10/03 02:02:45;;;;;;;;;;;8.00;99.90;;;;;;4949537;28;19921;-84
2022/10/03 02:05:23;;;;;;;;;;;8.00;99.90;;;;;;4940708;29;19937;-85
2022/10/03 02:07:49;;;;;;;;;;;8.00;99.90;;;;;;4949162;29;19966;-86
2022/10/03 02:10:27;;;;;;;;;;;7.90;99.90;;;;;;4949825;28;20376;-85
2022/10/03 02:13:08;;;;;;;;;;;7.90;99.90;;;;;;4951337;29;19917;-84
2022/10/03 02:15:39;;;;;;;;;;;7.90;99.90;;;;;;4936369;28;19910;-82
2022/10/03 02:18:14;;;;;;;;;;;8.00;99.90;;;;;;4952152;29;19965;-85
2022/10/03 02:21:12;;;;;;;;;;;8.00;99.90;;;;;;4953198;29;19914;-86
2022/10/03 02:23:42;;;;;;;;;;;8.00;99.90;;;;;;4920478;29;19962;-85
2022/10/03 02:26:20;;;;;;;;;;;8.00;99.90;;;;;;4953365;28;19954;-85
2022/10/03 02:29:05;;;;;;;;;;;8.00;99.90;;;;;;4951971;29;19945;-82
2022/10/03 02:31:57;;;;;;;;;;;8.10;99.90;;;;;;4949948;28;19911;-85
2022/10/03 02:34:26;;;;;;;;;;;8.20;99.90;;;;;;4948672;29;19910;-84
2022/10/03 02:37:30;;;;;;;;;;;8.20;99.90;;;;;;4952664;28;19914;-83
2022/10/03 02:39:55;;;;;;;;;;;8.20;99.90;;;;;;4910296;29;19926;-82
2022/10/03 02:42:37;;;;;;;;;;;8.20;99.90;;;;;;4926563;29;20006;-83
2022/10/03 02:45:09;;;;;;;;;;;8.20;99.90;;;;;;4923416;29;19911;-82
2022/10/03 02:47:44;;;;;;;;;;;8.20;99.90;;;;;;4952092;28;19918;-85
2022/10/03 02:50:18;;;;;;;;;;;8.30;99.90;;;;;;4932416;29;19917;-83
2022/10/03 02:52:43;;;;;;;;;;;8.30;99.90;;;;;;4951596;29;19910;-83
2022/10/03 02:55:09;;;;;;;;;;;8.30;99.90;;;;;;4952533;28;20515;-85
2022/10/03 02:57:38;;;;;;;;;;;8.40;99.90;;;;;;4951479;29;19911;-85
2022/10/03 03:00:10;;;;;;;;;;;8.40;99.90;;;;;;4932298;29;19965;-84
2022/10/03 03:02:54;;;;;;;;;;;8.40;99.90;;;;;;4925257;29;19915;-84
2022/10/03 03:05:20;;;;;;;;;;;8.40;99.90;;;;;;4946203;28;20005;-83
2022/10/03 03:07:46;;;;;;;;;;;8.40;99.90;;;;;;4948510;29;19954;-84
2022/10/03 03:10:24;;;;;;;;;;;8.50;99.90;;;;;;4935717;29;19915;-84
2022/10/03 03:12:53;;;;;;;;;;;8.50;99.90;;;;;;4950264;29;20519;-86
2022/10/03 03:15:18;;;;;;;;;;;8.50;99.90;;;;;;4950639;29;19932;-82
2022/10/03 03:17:53;;;;;;;;;;;8.60;99.90;;;;;;4952137;29;20367;-85
2022/10/03 03:20:40;;;;;;;;;;;8.60;99.90;;;;;;4965270;28;19970;-84
2022/10/03 03:23:27;;;;;;;;;;;8.60;99.90;;;;;;4945588;29;19973;-85
2022/10/03 03:25:52;;;;;;;;;;;8.60;99.90;;;;;;4951019;29;19916;-86
2022/10/03 03:28:24;;;;;;;;;;;8.60;99.90;;;;;;4947538;29;19910;-86
2022/10/03 03:31:02;;;;;;;;;;;8.70;99.90;;;;;;4960579;28;20471;-85
2022/10/03 03:33:50;;;;;;;;;;;8.70;99.90;;;;;;4934840;29;19917;-84
2022/10/03 03:36:21;;;;;;;;;;;8.70;99.90;;;;;;4945937;28;20438;-85
2022/10/03 03:38:53;;;;;;;;;;;8.70;99.90;;;;;;4952397;28;19957;-85
2022/10/03 03:41:19;;;;;;;;;;;8.80;99.90;;;;;;4955986;28;20001;-85
2022/10/03 03:43:56;;;;;;;;;;;8.80;99.90;;;;;;4948804;28;19941;-86
2022/10/03 03:46:41;;;;;;;;;;;8.80;99.90;;;;;;4943091;29;19917;-86
2022/10/03 03:49:12;;;;;;;;;;;8.80;99.90;;;;;;4950641;28;19917;-84
2022/10/03 03:51:56;;;;;;;;;;;8.80;99.90;;;;;;4959028;28;19997;-84
2022/10/03 03:54:31;;;;;;;;;;;8.80;99.90;;;;;;4950800;29;19914;-84
2022/10/03 03:57:06;;;;;;;;;;;8.80;99.90;;;;;;4955660;28;19910;-84
2022/10/03 03:59:47;;;;;;;;;;;8.80;99.90;;;;;;4934461;29;19914;-84
2022/10/03 04:02:32;;;;;;;;;;;8.90;99.90;;;;;;4961536;28;19914;-84
2022/10/03 04:05:12;;;;;;;;;;;8.90;99.90;;;;;;4944181;29;20283;-85
2022/10/03 04:07:48;;;;;;;;;;;8.90;99.90;;;;;;4934115;29;19910;-82
2022/10/03 04:10:19;;;;;;;;;;;8.90;99.90;;;;;;4947481;29;19944;-83
2022/10/03 04:12:54;;;;;;;;;;;9.00;99.90;;;;;;4946959;29;20375;-85
2022/10/03 04:15:44;;;;;;;;;;;9.00;99.90;;;;;;4949416;28;20412;-83
2022/10/03 04:20:55;;;;;;;;;;;9.00;99.90;;;;;;4951181;28;19910;-83
2022/10/03 04:23:26;;;;;;;;;;;9.00;99.90;;;;;;4950266;29;20296;-83
2022/10/03 04:25:53;;;;;;;;;;;9.00;99.90;;;;;;4934063;29;19910;-84
2022/10/03 04:28:21;;;;;;;;;;;9.10;99.90;;;;;;4951538;29;19915;-83
2022/10/03 04:30:50;;;;;;;;;;;9.10;99.90;;;;;;4949996;29;19910;-83
2022/10/03 04:33:22;;;;;;;;;;;9.00;99.90;;;;;;4951135;28;19906;-84
2022/10/03 04:36:12;;;;;;;;;;;9.10;99.90;;;;;;4949936;29;20411;-83
2022/10/03 04:38:58;;;;;;;;;;;9.10;99.90;;;;;;4945857;28;20299;-84
2022/10/03 04:41:30;;;;;;;;;;;9.10;99.90;;;;;;4936707;29;19965;-84
2022/10/03 04:44:04;;;;;;;;;;;9.10;99.90;;;;;;4932162;29;20331;-83
2022/10/03 04:46:38;;;;;;;;;;;9.10;99.90;;;;;;4933271;29;19914;-84
2022/10/03 04:49:11;;;;;;;;;;;9.10;99.90;;;;;;4949700;29;19914;-84
2022/10/03 04:51:57;;;;;;;;;;;9.00;99.90;;;;;;4949174;29;19911;-85
2022/10/03 04:54:25;;;;;;;;;;;9.00;99.90;;;;;;4936737;29;19911;-86
2022/10/03 04:56:54;;;;;;;;;;;9.00;99.90;;;;;;4959792;28;20363;-84
2022/10/03 04:59:20;;;;;;;;;;;9.00;99.90;;;;;;4934730;29;19911;-84
2022/10/03 05:01:49;;;;;;;;;;;9.00;99.90;;;;;;4947446;29;19917;-82
2022/10/03 05:04:18;;;;;;;;;;;9.10;99.90;;;;;;4953307;29;19984;-83
2022/10/03 05:06:47;;;;;;;;;;;9.10;99.90;;;;;;4950196;28;19917;-84
2022/10/03 05:09:36;;;;;;;;;;;9.10;99.90;;;;;;4954929;29;19934;-85
2022/10/03 05:12:08;;;;;;;;;;;9.10;99.90;;;;;;4948974;29;19961;-83
2022/10/03 05:14:37;;;;;;;;;;;9.10;99.90;;;;;;4955172;29;19921;-82
2022/10/03 05:17:13;;;;;;;;;;;9.10;99.90;;;;;;4940667;29;19921;-84
2022/10/03 05:19:48;;;;;;;;;;;9.10;99.90;;;;;;4953538;29;19910;-83
2022/10/03 05:22:43;;;;;;;;;;;9.10;99.90;;;;;;4951063;29;19980;-83
2022/10/03 05:25:28;;;;;;;;;;;9.20;99.90;;;;;;4948618;29;19910;-83
2022/10/03 05:28:02;;;;;;;;;;;9.20;99.90;;;;;;4919074;29;19911;-84
2022/10/03 05:30:33;;;;;;;;;;;9.20;99.90;;;;;;4952788;29;19961;-84
2022/10/03 05:33:02;;;;;;;;;;;9.20;99.90;;;;;;4953203;29;20030;-83
2022/10/03 05:35:31;;;;;;;;;;;9.20;99.90;;;;;;4952980;29;19965;-86
2022/10/03 05:37:59;;;;;;;;;;;9.20;99.90;;;;;;4918202;29;19918;-84
2022/10/03 05:40:29;;;;;;;;;;;9.20;99.90;;;;;;4935625;29;19910;-84
2022/10/03 05:43:03;;;;;;;;;;;9.20;99.90;;;;;;4936805;29;20005;-83
2022/10/03 05:45:58;;;;;;;;;;;9.20;99.90;;;;;;4952985;28;19917;-83
2022/10/03 05:48:32;;;;;;;;;;;9.20;99.90;;;;;;4936995;29;20224;-84
2022/10/03 05:51:12;;;;;;;;;;;9.20;99.90;;;;;;4952808;29;20017;-84
2022/10/03 05:53:47;;;;;;;;;;;9.20;99.90;;;;;;4952419;28;20391;-83
2022/10/03 05:56:32;;;;;;;;;;;9.20;99.90;;;;;;4952646;29;19910;-85
2022/10/03 05:59:03;;;;;;;;;;;9.30;99.90;;;;;;4953851;29;19914;-84
2022/10/03 06:01:57;;;;;;;;;;;9.20;99.90;;;;;;4945270;29;20351;-83
2022/10/03 06:04:29;;;;;;;;;;;9.20;99.90;;;;;;4945995;29;19914;-84
2022/10/03 06:07:04;;;;;;;;;;;9.20;99.90;;;;;;4947108;28;20031;-83
2022/10/03 06:09:48;;;;;;;;;;;9.20;99.90;;;;;;4952797;29;19914;-83
2022/10/03 06:12:34;;;;;;;;;;;9.20;99.90;;;;;;4954752;28;19918;-83
2022/10/03 06:15:01;;;;;;;;;;;9.20;99.90;;;;;;4935663;29;20005;-84
2022/10/03 06:17:27;;;;;;;;;;;9.20;99.90;;;;;;4967097;28;19925;-83
2022/10/03 06:20:11;;;;;;;;;;;9.20;99.90;;;;;;4954595;29;19910;-83
2022/10/03 06:22:49;;;;;;;;;;;9.20;99.90;;;;;;4941638;29;19932;-83
2022/10/03 06:25:35;;;;;;;;;;;9.20;99.90;;;;;;4928673;29;19969;-84
2022/10/03 06:28:29;;;;;;;;;;;9.20;99.90;;;;;;4935723;29;20132;-85
2022/10/03 06:30:57;;;;;;;;;;;9.20;99.90;;;;;;4940005;28;19911;-85
2022/10/03 06:33:42;;;;;;;;;;;9.20;99.90;;;;;;4936867;29;19945;-84
2022/10/03 06:36:10;;;;;;;;;;;9.20;99.90;;;;;;4933299;29;19934;-83
2022/10/03 06:38:39;;;;;;;;;;;9.20;99.90;;;;;;4950472;29;19938;-84
2022/10/03 06:41:04;;;;;;;;;;;9.20;99.90;;;;;;4948043;28;20397;-84
2022/10/03 06:43:33;;;;;;;;;;;9.20;99.90;;;;;;4948054;29;19938;-84
2022/10/03 06:46:18;;;;;;;;;;;9.20;99.90;;;;;;4948322;29;19910;-83
2022/10/03 06:48:53;;;;;;;;;;;9.20;99.90;;;;;;4950041;29;20374;-82
2022/10/03 06:51:37;;;;;;;;;;;9.30;99.90;;;;;;4966037;28;20555;-84
2022/10/03 06:54:15;;;;;;;;;;;9.30;99.90;;;;;;4931196;29;19919;-83
2022/10/03 06:56:53;;;;;;;;;;;9.30;99.90;;;;;;4943641;28;19921;-83
2022/10/03 06:59:38;;;;;;;;;;;9.40;99.90;;;;;;4948949;29;19915;-83
2022/10/03 07:02:23;;;;;;;;;;;9.40;99.90;;;;;;4940689;28;19962;-85
2022/10/03 07:05:09;;;;;;;;;;;9.50;99.90;;;;;;4960635;28;20319;-81
2022/10/03 07:07:53;;;;;;;;;;;9.50;99.90;;;;;;4932265;29;19911;-83
2022/10/03 07:10:33;;;;;;;;;;;9.50;99.90;;;;;;4952283;29;19942;-83
2022/10/03 07:13:05;;;;;;;;;;;9.60;99.90;;;;;;4950628;29;19917;-83
2022/10/03 07:15:34;;;;;;;;;;;9.60;99.90;;;;;;4947074;29;19981;-85
2022/10/03 07:18:20;;;;;;;;;;;9.70;99.90;;;;;;4940516;29;19915;-83
2022/10/03 07:21:03;;;;;;;;;;;10.00;99.90;;;;;;4932769;29;19910;-84
2022/10/03 07:23:44;;;;;;;;;;;10.40;99.90;;;;;;4952726;29;19937;-82
2022/10/03 07:26:21;;;;;;;;;;;10.90;99.90;;;;;;4951058;29;20351;-84
2022/10/03 07:29:02;;;;;;;;;;;11.40;99.90;;;;;;4950599;29;19917;-83
2022/10/03 07:31:36;;;;;;;;;;;11.70;99.90;;;;;;4936847;29;19910;-83
2022/10/03 07:34:21;;;;;;;;;;;11.90;99.90;;;;;;4940016;29;19910;-83
2022/10/03 07:39:34;;;;;;;;;;;11.80;99.90;;;;;;4951702;29;19918;-83
2022/10/03 07:42:15;;;;;;;;;;;11.70;99.90;;;;;;4941915;29;19906;-83
2022/10/03 07:44:56;;;;;;;;;;;11.60;99.90;;;;;;4950819;29;20387;-83
2022/10/03 07:47:41;;;;;;;;;;;11.50;99.90;;;;;;4951082;28;19914;-84
2022/10/03 07:50:18;;;;;;;;;;;11.60;99.90;;;;;;4932882;29;19970;-83
2022/10/03 07:52:53;;;;;;;;;;;11.60;99.90;;;;;;4941821;29;20005;-85
2022/10/03 07:55:22;;;;;;;;;;;11.70;99.90;;;;;;4950157;29;19911;-85
2022/10/03 07:58:04;;;;;;;;;;;11.80;99.90;;;;;;4948974;28;19921;-83
2022/10/03 08:00:46;;;;;;;;;;;11.90;99.90;;;;;;4949996;29;19910;-85
2022/10/03 08:03:21;;;;;;;;;;;12.00;99.90;;;;;;4941013;29;19919;-84
2022/10/03 08:06:00;;;;;;;;;;;12.00;99.90;;;;;;4933543;29;19973;-84
2022/10/03 08:08:49;;;;;;;;;;;12.00;99.90;;;;;;4934471;29;19911;-85
2022/10/03 08:11:26;;;;;;;;;;;12.00;99.90;;;;;;4942382;29;19942;-85
2022/10/03 08:13:58;;;;;;;;;;;12.00;99.90;;;;;;4949034;29;19921;-84
2022/10/03 08:16:42;;;;;;;;;;;12.00;99.90;;;;;;4949756;29;19911;-84
2022/10/03 08:19:27;;;;;;;;;;;12.00;99.90;;;;;;4930959;29;19914;-84
2022/10/03 08:22:04;;;;;;;;;;;12.10;99.90;;;;;;4938502;29;19960;-87
2022/10/03 08:24:36;;;;;;;;;;;12.10;99.90;;;;;;4947355;29;19915;-84
2022/10/03 08:27:04;;;;;;;;;;;12.10;99.90;;;;;;4932925;29;19914;-84
2022/10/03 08:29:44;;;;;;;;;;;12.10;99.90;;;;;;4933479;29;19910;-84
2022/10/03 08:32:11;;;;;;;;;;;12.10;99.90;;;;;;4946795;29;19953;-84
2022/10/03 08:34:43;;;;;;;;;;;12.10;99.90;;;;;;4929146;29;19910;-85
2022/10/03 08:37:18;;;;;;;;;;;12.10;99.90;;;;;;4941443;28;20001;-85
2022/10/03 08:39:53;;;;;;;;;;;12.10;99.90;;;;;;4922043;28;19918;-84
2022/10/03 08:42:18;;;;;;;;;;;12.10;99.90;;;;;;4932845;29;19910;-85
2022/10/03 08:44:50;;;;;;;;;;;12.10;99.90;;;;;;4943557;29;19965;-83
2022/10/03 08:47:22;;;;;;;;;;;12.10;99.90;;;;;;4939015;29;19910;-86
2022/10/03 08:49:59;;;;;;;;;;;12.10;99.90;;;;;;4950124;28;19917;-85
2022/10/03 08:52:44;;;;;;;;;;;12.10;99.90;;;;;;4948269;28;19910;-84
2022/10/03 08:55:29;;;;;;;;;;;12.20;99.90;;;;;;4949103;29;19910;-84
2022/10/03 08:58:14;;;;;;;;;;;12.20;99.90;;;;;;4950560;29;19920;-85
2022/10/03 09:00:39;;;;;;;;;;;12.20;99.90;;;;;;4941587;29;19910;-85
2022/10/03 09:03:18;;;;;;;;;;;12.20;99.90;;;;;;4942974;29;19921;-86
2022/10/03 09:05:44;;;;;;;;;;;12.20;99.90;;;;;;4943531;29;19917;-85
2022/10/03 09:08:28;;;;;;;;;;;12.20;99.90;;;;;;4951006;29;19910;-85
2022/10/03 09:11:13;;;;;;;;;;;12.20;99.90;;;;;;4936018;29;20307;-86
2022/10/03 09:13:57;;;;;;;;;;;12.20;99.90;;;;;;4950361;28;19910;-86
2022/10/03 09:16:29;;;;;;;;;;;12.20;99.90;;;;;;4952956;28;19910;-84
2022/10/03 09:19:00;;;;;;;;;;;12.20;99.90;;;;;;4947289;29;19914;-84
2022/10/03 09:21:34;;;;;;;;;;;12.10;99.90;;;;;;4937364;29;19950;-86
2022/10/03 09:24:00;;;;;;;;;;;12.10;99.90;;;;;;4958447;28;19918;-83
2022/10/03 09:26:47;;;;;;;;;;;12.10;99.90;;;;;;4962473;28;19907;-83
2022/10/03 09:29:25;;;;;;;;;;;12.20;99.90;;;;;;4959066;28;19911;-84
2022/10/03 09:32:06;;;;;;;;;;;12.10;99.90;;;;;;4928387;29;20326;-83
2022/10/03 09:34:51;;;;;;;;;;;12.20;99.90;;;;;;4940776;29;19914;-86
2022/10/03 09:37:38;;;;;;;;;;;12.20;99.90;;;;;;4943496;29;19914;-85
2022/10/03 09:40:06;;;;;;;;;;;12.10;99.90;;;;;;4946870;29;19957;-83
2022/10/03 09:42:51;;;;;;;;;;;12.10;99.90;;;;;;4946868;28;19919;-84
2022/10/03 09:45:20;;;;;;;;;;;12.10;99.90;;;;;;4942996;28;19911;-84
2022/10/03 09:48:11;;;;;;;;;;;12.10;99.90;;;;;;4949444;29;20614;-83
2022/10/03 09:50:50;;;;;;;;;;;12.10;99.90;;;;;;4933770;29;20020;-85
2022/10/03 09:53:31;;;;;;;;;;;12.10;99.90;;;;;;4950501;28;19911;-85
2022/10/03 09:56:00;;;;;;;;;;;12.10;99.90;;;;;;4940140;29;19910;-84
2022/10/03 09:58:43;;;;;;;;;;;12.20;99.90;;;;;;4947828;29;19914;-85
2022/10/03 10:01:08;;;;;;;;;;;12.20;99.90;;;;;;4941874;29;19932;-82
2022/10/03 10:03:53;;;;;;;;;;;12.30;99.90;;;;;;4951482;29;20391;-85
2022/10/03 10:06:37;;;;;;;;;;;12.30;99.90;;;;;;4935018;29;19911;-85
2022/10/03 10:09:20;;;;;;;;;;;12.40;99.90;;;;;;4936707;29;19934;-85
2022/10/03 10:11:57;;;;;;;;;;;12.50;99.90;;;;;;4942554;29;19964;-85
2022/10/03 10:14:35;;;;;;;;;;;12.50;99.90;;;;;;4949532;29;19917;-83
2022/10/03 10:17:20;;;;;;;;;;;12.40;99.90;;;;;;4947918;29;19910;-83
2022/10/03 10:19:50;;;;;;;;;;;12.40;99.90;;;;;;4938450;29;19911;-83
2022/10/03 10:22:31;;;;;;;;;;;12.50;99.90;;;;;;4941161;29;19910;-83
2022/10/03 10:25:09;;;;;;;;;;;12.60;99.90;;;;;;4930493;29;20410;-84
2022/10/03 10:27:35;;;;;;;;;;;12.80;99.90;;;;;;4944895;28;19918;-84
2022/10/03 10:30:24;;;;;;;;;;;13.00;99.90;;;;;;4947547;29;20513;-83
2022/10/03 10:33:08;;;;;;;;;;;13.20;99.90;;;;;;4931463;28;19997;-85
2022/10/03 10:35:34;;;;;;;;;;;13.30;99.90;;;;;;4935093;28;20330;-83
2022/10/03 10:38:19;;;;;;;;;;;13.30;99.90;;;;;;4936858;28;19915;-82
2022/10/03 10:40:45;;;;;;;;;;;13.30;99.90;;;;;;4943713;28;19993;-86
2022/10/03 10:43:17;;;;;;;;;;;13.30;99.90;;;;;;4939968;29;19915;-83
2022/10/03 10:45:54;;;;;;;;;;;13.30;99.90;;;;;;4961524;28;19910;-83
2022/10/03 10:48:38;;;;;;;;;;;13.20;99.90;;;;;;4945544;29;19966;-83
2022/10/03 10:51:06;;;;;;;;;;;13.30;99.90;;;;;;4949350;28;19911;-83
2022/10/03 10:53:50;;;;;;;;;;;13.30;99.90;;;;;;4946452;28;20426;-83
2022/10/03 10:56:45;;;;;;;;;;;13.30;99.90;;;;;;4948289;28;19966;-84
2022/10/03 10:59:31;;;;;;;;;;;13.20;99.90;;;;;;4893222;28;19998;-84
2022/10/03 11:02:16;;;;;;;;;;;13.10;99.90;;;;;;4888092;29;20021;-83
2022/10/03 11:04:48;;;;;;;;;;;13.00;99.90;;;;;;4920609;29;20311;-84
2022/10/03 11:07:32;;;;;;;;;;;12.90;99.90;;;;;;4947637;29;19921;-83
2022/10/03 11:10:10;;;;;;;;;;;12.70;99.90;;;;;;4928474;29;19912;-83
2022/10/03 11:12:55;;;;;;;;;;;12.70;99.90;;;;;;4925526;29;20309;-82
2022/10/03 11:15:42;;;;;;;;;;;12.60;99.90;;;;;;4946164;28;19911;-83
2022/10/03 11:18:31;;;;;;;;;;;12.70;99.90;;;;;;4937186;29;19915;-84
2022/10/03 11:21:23;;;;;;;;;;;12.60;99.90;;;;;;4963877;28;19945;-83
2022/10/03 11:23:49;;;;;;;;;;;12.70;99.90;;;;;;4944744;29;20005;-84
2022/10/03 11:26:34;;;;;;;;;;;12.70;99.90;;;;;;4952959;28;20335;-84
2022/10/03 11:29:05;;;;;;;;;;;12.80;99.90;;;;;;4958656;28;19916;-86
2022/10/03 11:31:50;;;;;;;;;;;13.00;99.90;;;;;;4952209;28;20008;-84
2022/10/03 11:34:19;;;;;;;;;;;13.20;99.90;;;;;;4928332;29;19915;-85
2022/10/03 11:36:47;;;;;;;;;;;13.40;99.90;;;;;;4946794;29;20434;-83
2022/10/03 11:39:30;;;;;;;;;;;13.60;99.90;;;;;;4936292;29;19918;-84
2022/10/03 11:42:04;;;;;;;;;;;13.70;99.90;;;;;;4942101;29;19910;-84
2022/10/03 11:44:39;;;;;;;;;;;13.80;99.90;;;;;;4943272;29;19966;-84
2022/10/03 11:47:14;;;;;;;;;;;13.90;99.90;;;;;;4944391;29;19964;-84
2022/10/03 11:49:46;;;;;;;;;;;13.80;99.90;;;;;;4944632;29;19922;-85
2022/10/03 11:52:18;;;;;;;;;;;13.80;99.90;;;;;;4945421;28;19965;-84
2022/10/03 11:54:46;;;;;;;;;;;13.90;99.90;;;;;;4941961;28;19910;-81
2022/10/03 11:57:15;;;;;;;;;;;13.90;99.90;;;;;;4941936;29;20021;-82
2022/10/03 11:59:57;;;;;;;;;;;13.80;99.90;;;;;;4939109;28;19910;-82
2022/10/03 12:02:33;;;;;;;;;;;13.90;99.90;;;;;;4946600;28;19915;-84
2022/10/03 12:05:01;;;;;;;;;;;14.00;99.90;;;;;;4942884;28;19910;-83
2022/10/03 12:10:30;;;;;;;;;;;14.10;99.90;;;;;;4941527;29;19919;-82
2022/10/03 12:12:57;;;;;;;;;;;14.10;99.90;;;;;;4945200;29;19910;-84
2022/10/03 12:15:38;;;;;;;;;;;14.10;99.90;;;;;;4947535;29;19989;-83
2022/10/03 12:18:23;;;;;;;;;;;14.20;99.90;;;;;;4937397;29;19919;-83
2022/10/03 12:20:52;;;;;;;;;;;14.30;99.90;;;;;;4947747;28;20327;-85
2022/10/03 12:23:26;;;;;;;;;;;14.30;99.90;;;;;;4943379;29;20009;-84
2022/10/03 12:25:53;;;;;;;;;;;14.30;99.90;;;;;;4941359;29;20136;-84
2022/10/03 12:28:22;;;;;;;;;;;14.40;99.90;;;;;;4927657;29;20072;-83
2022/10/03 12:31:07;;;;;;;;;;;14.40;99.90;;;;;;4946220;29;19993;-83
2022/10/03 12:33:44;;;;;;;;;;;14.30;99.90;;;;;;4943812;28;19914;-83
2022/10/03 12:36:14;;;;;;;;;;;14.20;99.90;;;;;;4955108;28;19910;-83
2022/10/03 12:38:55;;;;;;;;;;;14.10;99.90;;;;;;4945570;29;20367;-84
2022/10/03 12:41:39;;;;;;;;;;;14.10;99.90;;;;;;4947352;29;20395;-83
2022/10/03 12:44:15;;;;;;;;;;;14.00;99.90;;;;;;4934524;29;19914;-84
2022/10/03 12:46:50;;;;;;;;;;;14.10;99.90;;;;;;4941266;29;20457;-85
2022/10/03 12:49:28;;;;;;;;;;;14.10;99.90;;;;;;4950671;29;19914;-84
2022/10/03 12:51:56;;;;;;;;;;;14.10;99.90;;;;;;4948077;28;19933;-83
2022/10/03 12:54:43;;;;;;;;;;;14.10;99.90;;;;;;4945548;29;19956;-82
2022/10/03 12:57:29;;;;;;;;;;;14.00;99.90;;;;;;4946831;29;19990;-84
2022/10/03 13:00:14;;;;;;;;;;;14.00;99.90;;;;;;4927463;29;19933;-83
2022/10/03 13:02:39;;;;;;;;;;;13.90;99.90;;;;;;4940623;29;20015;-85
2022/10/03 13:05:08;;;;;;;;;;;13.80;99.90;;;;;;4948873;29;20000;-85
2022/10/03 13:07:43;;;;;;;;;;;13.70;99.90;;;;;;4945404;28;19921;-83
2022/10/03 13:10:26;;;;;;;;;;;13.70;99.90;;;;;;4950135;28;20446;-84
2022/10/03 13:12:57;;;;;;;;;;;13.60;99.90;;;;;;4923186;29;19914;-86
2022/10/03 13:15:43;;;;;;;;;;;13.60;99.90;;;;;;4948510;29;19914;-84
2022/10/03 13:18:27;;;;;;;;;;;13.50;99.90;;;;;;4951219;29;19915;-84
2022/10/03 13:21:13;;;;;;;;;;;13.50;99.90;;;;;;4952805;29;19911;-84
2022/10/03 13:23:39;;;;;;;;;;;13.40;99.90;;;;;;4944462;29;20106;-84
2022/10/03 13:26:12;;;;;;;;;;;13.40;99.90;;;;;;4951683;28;20001;-83
2022/10/03 13:28:57;;;;;;;;;;;13.50;99.90;;;;;;4947898;29;19946;-83
2022/10/03 13:31:29;;;;;;;;;;;13.50;99.90;;;;;;4942639;29;20536;-83
2022/10/03 13:33:57;;;;;;;;;;;13.50;99.90;;;;;;4953536;29;19910;-83
2022/10/03 13:36:37;;;;;;;;;;;13.60;99.90;;;;;;4952635;28;19953;-83
2022/10/03 13:39:15;;;;;;;;;;;13.60;99.90;;;;;;4948911;29;19921;-84
2022/10/03 13:42:18;;;;;;;;;;;13.60;99.90;;;;;;4942450;29;20372;-82
2022/10/03 13:44:54;;;;;;;;;;;13.50;99.90;;;;;;4911215;29;19911;-83
2022/10/03 13:47:38;;;;;;;;;;;13.40;99.90;;;;;;4944924;29;19911;-83
2022/10/03 13:50:09;;;;;;;;;;;13.40;99.90;;;;;;4923019;29;20418;-83
2022/10/03 13:52:38;;;;;;;;;;;13.30;99.90;;;;;;4937017;29;20291;-83
2022/10/03 13:55:03;;;;;;;;;;;13.20;99.90;;;;;;4950257;29;19918;-82
2022/10/03 13:57:33;;;;;;;;;;;13.10;99.90;;;;;;4967966;28;19910;-83
2022/10/03 14:00:10;;;;;;;;;;;13.10;99.90;;;;;;4953414;28;19910;-82
2022/10/03 14:02:50;;;;;;;;;;;13.00;99.90;;;;;;4968607;28;19914;-83
2022/10/03 14:05:31;;;;;;;;;;;13.00;99.90;;;;;;4935938;29;20043;-84
2022/10/03 14:08:11;;;;;;;;;;;13.00;99.90;;;;;;4939267;29;19942;-83
2022/10/03 14:10:57;;;;;;;;;;;13.00;99.90;;;;;;4952207;29;19917;-81
2022/10/03 14:13:37;;;;;;;;;;;13.00;99.90;;;;;;4950946;28;19938;-83
2022/10/03 14:16:21;;;;;;;;;;;13.10;99.90;;;;;;4954136;28;19922;-83
2022/10/03 14:18:53;;;;;;;;;;;13.10;99.90;;;;;;4947317;29;19914;-83
2022/10/03 14:21:19;;;;;;;;;;;13.10;99.90;;;;;;4943918;29;19997;-84
2022/10/03 14:24:03;;;;;;;;;;;13.10;99.90;;;;;;4948226;28;19914;-84
2022/10/03 14:26:45;;;;;;;;;;;13.10;99.90;;;;;;4969984;28;19918;-81
2022/10/03 14:29:29;;;;;;;;;;;13.20;99.90;;;;;;4952550;28;19933;-85
2022/10/03 14:31:58;;;;;;;;;;;13.30;99.90;;;;;;4933057;29;20244;-84
2022/10/03 14:34:33;;;;;;;;;;;13.30;99.90;;;;;;4944111;29;20210;-83
2022/10/03 14:37:19;;;;;;;;;;;13.40;99.90;;;;;;4931193;29;20456;-83
2022/10/03 14:40:04;;;;;;;;;;;13.50;99.90;;;;;;4949214;28;19915;-83
2022/10/03 14:42:35;;;;;;;;;;;13.50;99.90;;;;;;4942561;28;20379;-83
2022/10/03 14:45:06;;;;;;;;;;;13.40;99.90;;;;;;4942613;29;20054;-83
2022/10/03 14:47:36;;;;;;;;;;;13.40;99.90;;;;;;4950095;29;19945;-83
2022/10/03 14:50:03;;;;;;;;;;;13.40;99.90;;;;;;4950236;29;19914;-84
2022/10/03 14:52:36;;;;;;;;;;;13.30;99.90;;;;;;4935063;28;20426;-84
2022/10/03 14:55:24;;;;;;;;;;;13.30;99.90;;;;;;4952597;28;20415;-83
2022/10/03 14:58:16;;;;;;;;;;;13.30;99.90;;;;;;4935626;29;19938;-83
2022/10/03 15:00:47;;;;;;;;;;;13.30;99.90;;;;;;4944165;29;19973;-84
2022/10/03 15:03:16;;;;;;;;;;;13.30;99.90;;;;;;4936886;29;19955;-82
2022/10/03 15:05:58;;;;;;;;;;;13.30;99.90;;;;;;4952355;28;19914;-82
2022/10/03 15:08:27;;;;;;;;;;;13.30;99.90;;;;;;4951376;28;20001;-83
2022/10/03 15:10:53;;;;;;;;;;;13.30;99.90;;;;;;4951661;29;20009;-83
2022/10/03 15:13:20;;;;;;;;;;;13.20;99.90;;;;;;4953983;28;19921;-83
2022/10/03 15:15:47;;;;;;;;;;;13.20;99.90;;;;;;4952577;29;20292;-82
2022/10/03 15:18:19;;;;;;;;;;;13.20;99.90;;;;;;4950239;28;19914;-82
2022/10/03 15:20:46;;;;;;;;;;;13.20;99.90;;;;;;4952878;28;20020;-83
2022/10/03 15:23:18;;;;;;;;;;;13.20;99.90;;;;;;4949136;29;19982;-81
2022/10/03 15:25:51;;;;;;;;;;;13.10;99.90;;;;;;4948836;28;20398;-83
2022/10/03 15:28:22;;;;;;;;;;;13.10;99.90;;;;;;4951968;29;19954;-82
2022/10/03 15:30:50;;;;;;;;;;;13.10;99.90;;;;;;4936007;29;20498;-83